sensor_id;sensor_type;location;lat;lon;timestamp;temperature;humidity
41953;DHT22;63613;28.200;112.870;2024-01-30T00:00:18;7.90;87.70
41953;DHT22;63613;28.200;112.870;2024-01-30T00:02:47;7.90;88.00
41953;DHT22;63613;28.200;112.870;2024-01-30T00:05:15;7.90;87.80
41953;DHT22;63613;28.200;112.870;2024-01-30T00:07:44;7.90;87.40
41953;DHT22;63613;28.200;112.870;2024-01-30T00:10:13;7.90;87.80
41953;DHT22;63613;28.200;112.870;2024-01-30T00:12:43;8.00;87.70
41953;DHT22;63613;28.200;112.870;2024-01-30T00:15:12;7.90;87.60
41953;DHT22;63613;28.200;112.870;2024-01-30T00:17:40;8.00;87.60
41953;DHT22;63613;28.200;112.870;2024-01-30T00:20:09;8.00;87.20
41953;DHT22;63613;28.200;112.870;2024-01-30T00:22:38;8.10;87.20
41953;DHT22;63613;28.200;112.870;2024-01-30T00:25:08;8.20;86.80
41953;DHT22;63613;28.200;112.870;2024-01-30T00:27:37;8.20;86.60
41953;DHT22;63613;28.200;112.870;2024-01-30T00:30:06;8.10;86.60
41953;DHT22;63613;28.200;112.870;2024-01-30T00:32:35;8.20;86.40
41953;DHT22;63613;28.200;112.870;2024-01-30T00:35:03;8.20;86.30
41953;DHT22;63613;28.200;112.870;2024-01-30T00:37:33;8.20;86.30
41953;DHT22;63613;28.200;112.870;2024-01-30T00:40:02;8.20;86.10
41953;DHT22;63613;28.200;112.870;2024-01-30T00:42:31;8.20;85.70
41953;DHT22;63613;28.200;112.870;2024-01-30T00:45:00;8.20;85.90
41953;DHT22;63613;28.200;112.870;2024-01-30T00:47:28;8.20;86.00
41953;DHT22;63613;28.200;112.870;2024-01-30T00:49:58;8.20;86.00
41953;DHT22;63613;28.200;112.870;2024-01-30T00:52:26;8.30;85.80
41953;DHT22;63613;28.200;112.870;2024-01-30T00:54:55;8.30;85.40
41953;DHT22;63613;28.200;112.870;2024-01-30T00:57:23;8.30;85.60
41953;DHT22;63613;28.200;112.870;2024-01-30T00:59:52;8.40;85.30
41953;DHT22;63613;28.200;112.870;2024-01-30T01:02:23;8.40;84.80
41953;DHT22;63613;28.200;112.870;2024-01-30T01:04:51;8.40;84.70
41953;DHT22;63613;28.200;112.870;2024-01-30T01:07:20;8.50;84.50
41953;DHT22;63613;28.200;112.870;2024-01-30T01:09:49;8.40;84.50
41953;DHT22;63613;28.200;112.870;2024-01-30T01:12:17;8.40;84.40
41953;DHT22;63613;28.200;112.870;2024-01-30T01:14:48;8.40;84.40
41953;DHT22;63613;28.200;112.870;2024-01-30T01:17:17;8.50;84.40
41953;DHT22;63613;28.200;112.870;2024-01-30T01:19:46;8.50;84.50
41953;DHT22;63613;28.200;112.870;2024-01-30T01:22:15;8.50;84.40
41953;DHT22;63613;28.200;112.870;2024-01-30T01:24:45;8.60;84.20
41953;DHT22;63613;28.200;112.870;2024-01-30T01:27:17;8.70;84.00
41953;DHT22;63613;28.200;112.870;2024-01-30T01:29:46;8.90;83.20
41953;DHT22;63613;28.200;112.870;2024-01-30T01:32:14;8.90;83.10
41953;DHT22;63613;28.200;112.870;2024-01-30T01:34:43;9.00;82.70
41953;DHT22;63613;28.200;112.870;2024-01-30T01:37:12;9.00;82.70
41953;DHT22;63613;28.200;112.870;2024-01-30T01:39:41;8.90;82.90
41953;DHT22;63613;28.200;112.870;2024-01-30T01:42:11;8.90;82.90
41953;DHT22;63613;28.200;112.870;2024-01-30T01:44:40;9.00;82.90
41953;DHT22;63613;28.200;112.870;2024-01-30T01:47:09;9.00;82.60
41953;DHT22;63613;28.200;112.870;2024-01-30T01:49:38;9.00;82.60
41953;DHT22;63613;28.200;112.870;2024-01-30T01:52:09;8.90;82.50
41953;DHT22;63613;28.200;112.870;2024-01-30T01:54:38;8.90;83.10
41953;DHT22;63613;28.200;112.870;2024-01-30T01:57:07;9.00;82.90
41953;DHT22;63613;28.200;112.870;2024-01-30T01:59:36;9.00;82.50
41953;DHT22;63613;28.200;112.870;2024-01-30T02:02:06;9.00;82.40
41953;DHT22;63613;28.200;112.870;2024-01-30T02:04:38;8.90;82.80
41953;DHT22;63613;28.200;112.870;2024-01-30T02:07:07;8.90;82.80
41953;DHT22;63613;28.200;112.870;2024-01-30T02:09:36;9.10;82.50
41953;DHT22;63613;28.200;112.870;2024-01-30T02:12:05;9.10;82.30
41953;DHT22;63613;28.200;112.870;2024-01-30T02:14:43;9.10;82.00
41953;DHT22;63613;28.200;112.870;2024-01-30T02:17:13;9.20;81.90
41953;DHT22;63613;28.200;112.870;2024-01-30T02:19:42;9.20;81.50
41953;DHT22;63613;28.200;112.870;2024-01-30T02:22:11;9.10;81.70
41953;DHT22;63613;28.200;112.870;2024-01-30T02:24:39;9.20;81.90
41953;DHT22;63613;28.200;112.870;2024-01-30T02:27:08;9.20;81.90
41953;DHT22;63613;28.200;112.870;2024-01-30T02:29:38;9.20;81.80
41953;DHT22;63613;28.200;112.870;2024-01-30T02:32:08;9.40;81.70
41953;DHT22;63613;28.200;112.870;2024-01-30T02:34:36;9.40;81.00
41953;DHT22;63613;28.200;112.870;2024-01-30T02:37:05;9.50;81.10
41953;DHT22;63613;28.200;112.870;2024-01-30T02:39:34;9.60;80.60
41953;DHT22;63613;28.200;112.870;2024-01-30T02:42:04;9.70;80.50
41953;DHT22;63613;28.200;112.870;2024-01-30T02:44:33;9.70;80.30
41953;DHT22;63613;28.200;112.870;2024-01-30T02:47:02;9.70;80.20
41953;DHT22;63613;28.200;112.870;2024-01-30T02:49:30;9.80;79.90
41953;DHT22;63613;28.200;112.870;2024-01-30T02:51:59;9.90;79.70
41953;DHT22;63613;28.200;112.870;2024-01-30T02:54:29;9.90;79.60
41953;DHT22;63613;28.200;112.870;2024-01-30T02:56:58;9.90;79.90
41953;DHT22;63613;28.200;112.870;2024-01-30T02:59:26;9.90;79.90
41953;DHT22;63613;28.200;112.870;2024-01-30T03:01:55;9.90;79.80
41953;DHT22;63613;28.200;112.870;2024-01-30T03:04:24;9.90;79.50
41953;DHT22;63613;28.200;112.870;2024-01-30T03:06:53;9.90;79.50
41953;DHT22;63613;28.200;112.870;2024-01-30T03:09:22;9.90;79.70
41953;DHT22;63613;28.200;112.870;2024-01-30T03:11:50;9.90;79.60
41953;DHT22;63613;28.200;112.870;2024-01-30T03:14:19;9.90;79.30
41953;DHT22;63613;28.200;112.870;2024-01-30T03:16:48;10.20;78.60
41953;DHT22;63613;28.200;112.870;2024-01-30T03:19:18;10.20;78.60
41953;DHT22;63613;28.200;112.870;2024-01-30T03:21:47;9.90;79.00
41953;DHT22;63613;28.200;112.870;2024-01-30T03:24:15;10.10;78.90
41953;DHT22;63613;28.200;112.870;2024-01-30T03:26:44;10.00;79.10
41953;DHT22;63613;28.200;112.870;2024-01-30T03:29:13;10.20;78.70
41953;DHT22;63613;28.200;112.870;2024-01-30T03:31:44;10.20;78.50
41953;DHT22;63613;28.200;112.870;2024-01-30T03:34:13;10.10;78.50
41953;DHT22;63613;28.200;112.870;2024-01-30T03:36:42;10.00;79.20
41953;DHT22;63613;28.200;112.870;2024-01-30T03:39:10;9.90;79.50
41953;DHT22;63613;28.200;112.870;2024-01-30T03:41:41;9.90;79.50
41953;DHT22;63613;28.200;112.870;2024-01-30T03:44:13;10.10;79.30
41953;DHT22;63613;28.200;112.870;2024-01-30T03:46:42;10.20;79.00
41953;DHT22;63613;28.200;112.870;2024-01-30T03:49:10;10.30;78.70
41953;DHT22;63613;28.200;112.870;2024-01-30T03:51:39;10.30;78.60
41953;DHT22;63613;28.200;112.870;2024-01-30T03:54:08;10.20;78.80
41953;DHT22;63613;28.200;112.870;2024-01-30T03:56:39;10.30;78.80
41953;DHT22;63613;28.200;112.870;2024-01-30T03:59:09;10.30;78.70
41953;DHT22;63613;28.200;112.870;2024-01-30T04:01:39;10.30;78.90
41953;DHT22;63613;28.200;112.870;2024-01-30T04:04:08;10.30;78.70
41953;DHT22;63613;28.200;112.870;2024-01-30T04:06:37;10.20;78.90
41953;DHT22;63613;28.200;112.870;2024-01-30T04:09:06;10.20;79.00
41953;DHT22;63613;28.200;112.870;2024-01-30T04:11:35;10.30;78.80
41953;DHT22;63613;28.200;112.870;2024-01-30T04:14:04;10.20;78.80
41953;DHT22;63613;28.200;112.870;2024-01-30T04:16:33;10.20;79.10
41953;DHT22;63613;28.200;112.870;2024-01-30T04:19:02;10.40;78.60
41953;DHT22;63613;28.200;112.870;2024-01-30T04:21:31;10.40;78.20
41953;DHT22;63613;28.200;112.870;2024-01-30T04:24:01;10.30;78.60
41953;DHT22;63613;28.200;112.870;2024-01-30T04:26:30;10.40;78.70
41953;DHT22;63613;28.200;112.870;2024-01-30T04:28:58;10.40;78.40
41953;DHT22;63613;28.200;112.870;2024-01-30T04:31:27;10.40;78.50
41953;DHT22;63613;28.200;112.870;2024-01-30T04:33:56;10.40;78.50
41953;DHT22;63613;28.200;112.870;2024-01-30T04:36:27;10.20;79.10
41953;DHT22;63613;28.200;112.870;2024-01-30T04:38:55;10.30;79.20
41953;DHT22;63613;28.200;112.870;2024-01-30T04:41:25;10.30;79.00
41953;DHT22;63613;28.200;112.870;2024-01-30T04:43:58;10.40;78.50
41953;DHT22;63613;28.200;112.870;2024-01-30T04:46:28;10.50;77.90
41953;DHT22;63613;28.200;112.870;2024-01-30T04:48:57;11.00;77.00
41953;DHT22;63613;28.200;112.870;2024-01-30T04:51:26;12.40;74.00
41953;DHT22;63613;28.200;112.870;2024-01-30T04:53:55;12.60;70.90
41953;DHT22;63613;28.200;112.870;2024-01-30T04:56:24;11.60;72.90
41953;DHT22;63613;28.200;112.870;2024-01-30T04:58:55;11.20;75.50
41953;DHT22;63613;28.200;112.870;2024-01-30T05:01:24;11.40;75.20
41953;DHT22;63613;28.200;112.870;2024-01-30T05:03:52;12.50;72.80
41953;DHT22;63613;28.200;112.870;2024-01-30T05:06:29;12.60;70.20
41953;DHT22;63613;28.200;112.870;2024-01-30T05:09:00;12.40;71.50
41953;DHT22;63613;28.200;112.870;2024-01-30T05:11:29;12.80;70.70
41953;DHT22;63613;28.200;112.870;2024-01-30T05:13:58;12.90;69.40
41953;DHT22;63613;28.200;112.870;2024-01-30T05:16:26;12.40;70.70
41953;DHT22;63613;28.200;112.870;2024-01-30T05:18:55;12.00;72.70
41953;DHT22;63613;28.200;112.870;2024-01-30T05:21:26;12.70;71.00
41953;DHT22;63613;28.200;112.870;2024-01-30T05:23:55;12.40;70.70
41953;DHT22;63613;28.200;112.870;2024-01-30T05:26:24;11.90;72.30
41953;DHT22;63613;28.200;112.870;2024-01-30T05:28:54;11.70;73.30
41953;DHT22;63613;28.200;112.870;2024-01-30T05:31:23;11.90;73.30
41953;DHT22;63613;28.200;112.870;2024-01-30T05:33:54;11.60;73.80
41953;DHT22;63613;28.200;112.870;2024-01-30T05:36:23;11.40;74.70
41953;DHT22;63613;28.200;112.870;2024-01-30T05:38:52;11.50;74.40
41953;DHT22;63613;28.200;112.870;2024-01-30T05:41:21;11.40;75.00
41953;DHT22;63613;28.200;112.870;2024-01-30T05:43:50;11.50;74.70
41953;DHT22;63613;28.200;112.870;2024-01-30T05:46:20;11.40;75.10
41953;DHT22;63613;28.200;112.870;2024-01-30T05:48:49;11.50;74.90
41953;DHT22;63613;28.200;112.870;2024-01-30T05:51:18;11.70;74.50
41953;DHT22;63613;28.200;112.870;2024-01-30T05:53:47;11.80;74.10
41953;DHT22;63613;28.200;112.870;2024-01-30T05:56:16;11.60;74.10
41953;DHT22;63613;28.200;112.870;2024-01-30T05:58:45;11.50;74.50
41953;DHT22;63613;28.200;112.870;2024-01-30T06:01:14;11.30;75.50
41953;DHT22;63613;28.200;112.870;2024-01-30T06:03:44;11.40;75.40
41953;DHT22;63613;28.200;112.870;2024-01-30T06:06:13;11.40;75.20
41953;DHT22;63613;28.200;112.870;2024-01-30T06:08:42;11.40;75.30
41953;DHT22;63613;28.200;112.870;2024-01-30T06:11:12;11.60;74.50
41953;DHT22;63613;28.200;112.870;2024-01-30T06:13:41;11.70;74.20
41953;DHT22;63613;28.200;112.870;2024-01-30T06:16:11;11.90;73.90
41953;DHT22;63613;28.200;112.870;2024-01-30T06:18:40;11.90;73.30
41953;DHT22;63613;28.200;112.870;2024-01-30T06:21:08;11.80;73.90
41953;DHT22;63613;28.200;112.870;2024-01-30T06:23:39;11.90;73.60
41953;DHT22;63613;28.200;112.870;2024-01-30T06:26:08;12.00;73.30
41953;DHT22;63613;28.200;112.870;2024-01-30T06:28:38;12.20;72.70
41953;DHT22;63613;28.200;112.870;2024-01-30T06:31:06;12.30;72.40
41953;DHT22;63613;28.200;112.870;2024-01-30T06:33:35;12.40;72.00
41953;DHT22;63613;28.200;112.870;2024-01-30T06:36:05;11.90;73.60
41953;DHT22;63613;28.200;112.870;2024-01-30T06:38:34;11.80;73.90
41953;DHT22;63613;28.200;112.870;2024-01-30T06:41:03;11.60;74.50
41953;DHT22;63613;28.200;112.870;2024-01-30T06:43:32;11.60;74.80
41953;DHT22;63613;28.200;112.870;2024-01-30T06:46:01;11.40;75.10
41953;DHT22;63613;28.200;112.870;2024-01-30T06:48:31;11.40;75.30
41953;DHT22;63613;28.200;112.870;2024-01-30T06:51:00;11.50;75.20
41953;DHT22;63613;28.200;112.870;2024-01-30T06:53:29;11.50;75.00
41953;DHT22;63613;28.200;112.870;2024-01-30T06:55:58;11.40;75.60
41953;DHT22;63613;28.200;112.870;2024-01-30T06:58:27;11.50;75.20
41953;DHT22;63613;28.200;112.870;2024-01-30T07:00:57;11.40;75.60
41953;DHT22;63613;28.200;112.870;2024-01-30T07:03:26;11.40;75.50
41953;DHT22;63613;28.200;112.870;2024-01-30T07:05:56;11.50;75.40
41953;DHT22;63613;28.200;112.870;2024-01-30T07:08:24;11.50;75.50
41953;DHT22;63613;28.200;112.870;2024-01-30T07:10:53;11.50;75.30
41953;DHT22;63613;28.200;112.870;2024-01-30T07:13:25;11.50;75.70
41953;DHT22;63613;28.200;112.870;2024-01-30T07:15:54;11.40;76.00
41953;DHT22;63613;28.200;112.870;2024-01-30T07:18:23;11.30;76.10
41953;DHT22;63613;28.200;112.870;2024-01-30T07:20:52;11.30;76.20
41953;DHT22;63613;28.200;112.870;2024-01-30T07:23:21;11.20;76.60
41953;DHT22;63613;28.200;112.870;2024-01-30T07:25:51;11.10;76.90
41953;DHT22;63613;28.200;112.870;2024-01-30T07:28:20;11.00;77.20
41953;DHT22;63613;28.200;112.870;2024-01-30T07:30:49;10.90;77.80
41953;DHT22;63613;28.200;112.870;2024-01-30T07:33:19;10.90;78.10
41953;DHT22;63613;28.200;112.870;2024-01-30T07:35:48;10.90;77.90
41953;DHT22;63613;28.200;112.870;2024-01-30T07:38:20;11.00;77.80
41953;DHT22;63613;28.200;112.870;2024-01-30T07:40:50;11.00;77.90
41953;DHT22;63613;28.200;112.870;2024-01-30T07:43:19;10.90;78.30
41953;DHT22;63613;28.200;112.870;2024-01-30T07:45:48;10.90;78.60
41953;DHT22;63613;28.200;112.870;2024-01-30T07:48:17;10.70;78.90
41953;DHT22;63613;28.200;112.870;2024-01-30T07:50:46;10.70;79.20
41953;DHT22;63613;28.200;112.870;2024-01-30T07:53:15;10.60;78.90
41953;DHT22;63613;28.200;112.870;2024-01-30T07:55:44;10.60;79.50
41953;DHT22;63613;28.200;112.870;2024-01-30T07:58:14;10.60;79.50
41953;DHT22;63613;28.200;112.870;2024-01-30T08:00:44;10.60;79.60
41953;DHT22;63613;28.200;112.870;2024-01-30T08:03:13;10.60;80.00
41953;DHT22;63613;28.200;112.870;2024-01-30T08:05:45;10.60;80.20
41953;DHT22;63613;28.200;112.870;2024-01-30T08:08:13;10.60;80.10
41953;DHT22;63613;28.200;112.870;2024-01-30T08:10:42;10.50;80.10
41953;DHT22;63613;28.200;112.870;2024-01-30T08:13:13;10.60;80.20
41953;DHT22;63613;28.200;112.870;2024-01-30T08:15:41;10.70;80.00
41953;DHT22;63613;28.200;112.870;2024-01-30T08:18:10;10.60;80.30
41953;DHT22;63613;28.200;112.870;2024-01-30T08:20:39;10.50;80.60
41953;DHT22;63613;28.200;112.870;2024-01-30T08:23:09;10.50;80.80
41953;DHT22;63613;28.200;112.870;2024-01-30T08:25:39;10.50;80.90
41953;DHT22;63613;28.200;112.870;2024-01-30T08:28:08;10.40;81.10
41953;DHT22;63613;28.200;112.870;2024-01-30T08:30:37;10.50;81.10
41953;DHT22;63613;28.200;112.870;2024-01-30T08:33:07;10.50;81.20
41953;DHT22;63613;28.200;112.870;2024-01-30T08:35:36;10.50;81.30
41953;DHT22;63613;28.200;112.870;2024-01-30T08:38:06;10.40;81.40
41953;DHT22;63613;28.200;112.870;2024-01-30T08:40:35;10.40;81.50
41953;DHT22;63613;28.200;112.870;2024-01-30T08:43:04;10.40;81.60
41953;DHT22;63613;28.200;112.870;2024-01-30T08:45:32;10.40;81.50
41953;DHT22;63613;28.200;112.870;2024-01-30T08:48:01;10.50;81.50
41953;DHT22;63613;28.200;112.870;2024-01-30T08:50:31;10.40;81.70
41953;DHT22;63613;28.200;112.870;2024-01-30T08:53:00;10.40;81.90
41953;DHT22;63613;28.200;112.870;2024-01-30T08:55:28;10.50;81.80
41953;DHT22;63613;28.200;112.870;2024-01-30T08:57:57;10.50;81.80
41953;DHT22;63613;28.200;112.870;2024-01-30T09:00:27;10.40;81.90
41953;DHT22;63613;28.200;112.870;2024-01-30T09:02:57;10.50;81.80
41953;DHT22;63613;28.200;112.870;2024-01-30T09:05:26;10.40;82.00
41953;DHT22;63613;28.200;112.870;2024-01-30T09:07:54;10.40;82.30
41953;DHT22;63613;28.200;112.870;2024-01-30T09:10:23;10.40;82.40
41953;DHT22;63613;28.200;112.870;2024-01-30T09:12:52;10.40;82.60
41953;DHT22;63613;28.200;112.870;2024-01-30T09:15:22;10.30;82.90
41953;DHT22;63613;28.200;112.870;2024-01-30T09:17:51;10.30;83.20
41953;DHT22;63613;28.200;112.870;2024-01-30T09:20:20;10.30;83.20
41953;DHT22;63613;28.200;112.870;2024-01-30T09:22:50;10.40;83.20
41953;DHT22;63613;28.200;112.870;2024-01-30T09:25:19;10.40;83.20
41953;DHT22;63613;28.200;112.870;2024-01-30T09:27:48;10.40;83.20
41953;DHT22;63613;28.200;112.870;2024-01-30T09:30:17;10.30;83.30
41953;DHT22;63613;28.200;112.870;2024-01-30T09:32:47;10.30;83.40
41953;DHT22;63613;28.200;112.870;2024-01-30T09:35:16;10.20;83.70
41953;DHT22;63613;28.200;112.870;2024-01-30T09:37:45;10.30;83.60
41953;DHT22;63613;28.200;112.870;2024-01-30T09:40:14;10.20;83.70
41953;DHT22;63613;28.200;112.870;2024-01-30T09:42:48;10.30;83.60
41953;DHT22;63613;28.200;112.870;2024-01-30T09:45:19;10.30;83.90
41953;DHT22;63613;28.200;112.870;2024-01-30T09:47:48;10.20;84.40
41953;DHT22;63613;28.200;112.870;2024-01-30T09:50:20;10.20;84.50
41953;DHT22;63613;28.200;112.870;2024-01-30T09:52:49;10.20;84.80
41953;DHT22;63613;28.200;112.870;2024-01-30T09:55:18;10.00;85.20
41953;DHT22;63613;28.200;112.870;2024-01-30T09:57:47;10.00;85.40
41953;DHT22;63613;28.200;112.870;2024-01-30T10:00:16;10.00;85.50
41953;DHT22;63613;28.200;112.870;2024-01-30T10:02:46;10.00;85.80
41953;DHT22;63613;28.200;112.870;2024-01-30T10:05:17;9.90;86.40
41953;DHT22;63613;28.200;112.870;2024-01-30T10:07:54;9.90;86.40
41953;DHT22;63613;28.200;112.870;2024-01-30T10:10:23;10.00;86.50
41953;DHT22;63613;28.200;112.870;2024-01-30T10:12:52;9.90;86.50
41953;DHT22;63613;28.200;112.870;2024-01-30T10:15:21;9.90;86.80
41953;DHT22;63613;28.200;112.870;2024-01-30T10:17:50;9.90;86.90
41953;DHT22;63613;28.200;112.870;2024-01-30T10:20:19;10.00;86.90
41953;DHT22;63613;28.200;112.870;2024-01-30T10:22:50;10.00;87.00
41953;DHT22;63613;28.200;112.870;2024-01-30T10:25:22;9.90;87.30
41953;DHT22;63613;28.200;112.870;2024-01-30T10:27:55;9.90;87.80
41953;DHT22;63613;28.200;112.870;2024-01-30T10:30:24;9.90;88.10
41953;DHT22;63613;28.200;112.870;2024-01-30T10:32:53;9.80;88.20
41953;DHT22;63613;28.200;112.870;2024-01-30T10:35:24;9.90;88.30
41953;DHT22;63613;28.200;112.870;2024-01-30T10:37:53;9.90;88.20
41953;DHT22;63613;28.200;112.870;2024-01-30T10:40:28;9.90;88.20
41953;DHT22;63613;28.200;112.870;2024-01-30T10:42:57;10.00;88.10
41953;DHT22;63613;28.200;112.870;2024-01-30T10:45:31;10.20;87.70
41953;DHT22;63613;28.200;112.870;2024-01-30T10:48:02;10.40;87.50
41953;DHT22;63613;28.200;112.870;2024-01-30T10:50:34;10.60;86.50
41953;DHT22;63613;28.200;112.870;2024-01-30T10:53:04;10.70;86.20
41953;DHT22;63613;28.200;112.870;2024-01-30T10:55:36;10.70;85.40
41953;DHT22;63613;28.200;112.870;2024-01-30T10:58:05;10.80;85.20
41953;DHT22;63613;28.200;112.870;2024-01-30T11:00:35;10.90;84.90
41953;DHT22;63613;28.200;112.870;2024-01-30T11:03:04;11.00;84.60
41953;DHT22;63613;28.200;112.870;2024-01-30T11:05:34;10.90;84.40
41953;DHT22;63613;28.200;112.870;2024-01-30T11:08:14;10.80;84.80
41953;DHT22;63613;28.200;112.870;2024-01-30T11:10:54;10.80;85.00
41953;DHT22;63613;28.200;112.870;2024-01-30T11:13:26;10.70;85.30
41953;DHT22;63613;28.200;112.870;2024-01-30T11:15:55;10.70;85.90
41953;DHT22;63613;28.200;112.870;2024-01-30T11:18:26;10.70;85.70
41953;DHT22;63613;28.200;112.870;2024-01-30T11:20:59;10.60;86.00
41953;DHT22;63613;28.200;112.870;2024-01-30T11:23:30;10.40;86.20
41953;DHT22;63613;28.200;112.870;2024-01-30T11:25:59;10.40;87.00
41953;DHT22;63613;28.200;112.870;2024-01-30T11:28:35;10.50;86.60
41953;DHT22;63613;28.200;112.870;2024-01-30T11:31:07;10.40;86.60
41953;DHT22;63613;28.200;112.870;2024-01-30T11:33:36;10.50;86.50
41953;DHT22;63613;28.200;112.870;2024-01-30T11:36:06;10.40;86.80
41953;DHT22;63613;28.200;112.870;2024-01-30T11:38:36;10.60;87.00
41953;DHT22;63613;28.200;112.870;2024-01-30T11:41:05;10.50;86.50
41953;DHT22;63613;28.200;112.870;2024-01-30T11:43:35;10.40;87.20
41953;DHT22;63613;28.200;112.870;2024-01-30T11:46:07;10.30;87.60
41953;DHT22;63613;28.200;112.870;2024-01-30T11:48:38;10.40;87.50
41953;DHT22;63613;28.200;112.870;2024-01-30T11:51:07;10.20;87.90
41953;DHT22;63613;28.200;112.870;2024-01-30T11:53:36;10.20;88.10
41953;DHT22;63613;28.200;112.870;2024-01-30T11:56:07;10.10;88.30
41953;DHT22;63613;28.200;112.870;2024-01-30T11:58:36;10.20;88.50
41953;DHT22;63613;28.200;112.870;2024-01-30T12:01:06;10.10;88.60
41953;DHT22;63613;28.200;112.870;2024-01-30T12:03:35;10.10;88.90
41953;DHT22;63613;28.200;112.870;2024-01-30T12:06:04;10.10;88.90
41953;DHT22;63613;28.200;112.870;2024-01-30T12:08:42;9.90;89.40
41953;DHT22;63613;28.200;112.870;2024-01-30T12:11:12;9.90;89.60
41953;DHT22;63613;28.200;112.870;2024-01-30T12:13:43;10.00;89.50
41953;DHT22;63613;28.200;112.870;2024-01-30T12:16:12;10.00;89.50
41953;DHT22;63613;28.200;112.870;2024-01-30T12:18:42;10.00;89.30
41953;DHT22;63613;28.200;112.870;2024-01-30T12:21:11;10.00;89.20
41953;DHT22;63613;28.200;112.870;2024-01-30T12:23:42;10.00;89.40
41953;DHT22;63613;28.200;112.870;2024-01-30T12:26:11;10.00;89.30
41953;DHT22;63613;28.200;112.870;2024-01-30T12:28:49;10.10;89.10
41953;DHT22;63613;28.200;112.870;2024-01-30T12:31:24;10.10;88.90
41953;DHT22;63613;28.200;112.870;2024-01-30T12:33:55;10.00;89.20
41953;DHT22;63613;28.200;112.870;2024-01-30T12:36:24;9.90;89.30
41953;DHT22;63613;28.200;112.870;2024-01-30T12:38:54;9.90;89.60
41953;DHT22;63613;28.200;112.870;2024-01-30T12:41:23;10.00;89.50
41953;DHT22;63613;28.200;112.870;2024-01-30T12:43:58;10.00;89.30
41953;DHT22;63613;28.200;112.870;2024-01-30T12:46:28;10.00;89.40
41953;DHT22;63613;28.200;112.870;2024-01-30T12:48:57;9.90;89.20
41953;DHT22;63613;28.200;112.870;2024-01-30T12:51:27;9.90;89.40
41953;DHT22;63613;28.200;112.870;2024-01-30T12:53:57;10.00;89.40
41953;DHT22;63613;28.200;112.870;2024-01-30T12:56:26;10.10;89.20
41953;DHT22;63613;28.200;112.870;2024-01-30T12:58:55;9.90;89.20
41953;DHT22;63613;28.200;112.870;2024-01-30T13:01:24;9.90;89.50
41953;DHT22;63613;28.200;112.870;2024-01-30T13:03:53;9.90;89.40
41953;DHT22;63613;28.200;112.870;2024-01-30T13:06:25;9.90;89.50
41953;DHT22;63613;28.200;112.870;2024-01-30T13:08:54;9.90;89.40
41953;DHT22;63613;28.200;112.870;2024-01-30T13:11:23;9.80;89.70
41953;DHT22;63613;28.200;112.870;2024-01-30T13:13:53;9.80;89.60
41953;DHT22;63613;28.200;112.870;2024-01-30T13:16:22;9.90;89.50
41953;DHT22;63613;28.200;112.870;2024-01-30T13:18:51;9.80;89.70
41953;DHT22;63613;28.200;112.870;2024-01-30T13:21:23;9.90;89.60
41953;DHT22;63613;28.200;112.870;2024-01-30T13:23:52;9.90;89.30
41953;DHT22;63613;28.200;112.870;2024-01-30T13:26:22;9.90;89.40
41953;DHT22;63613;28.200;112.870;2024-01-30T13:28:52;9.80;89.60
41953;DHT22;63613;28.200;112.870;2024-01-30T13:31:21;9.80;89.80
41953;DHT22;63613;28.200;112.870;2024-01-30T13:33:50;9.80;89.80
41953;DHT22;63613;28.200;112.870;2024-01-30T13:36:20;9.80;89.70
41953;DHT22;63613;28.200;112.870;2024-01-30T13:38:49;9.90;89.60
41953;DHT22;63613;28.200;112.870;2024-01-30T13:41:20;9.90;89.50
41953;DHT22;63613;28.200;112.870;2024-01-30T13:43:50;9.90;89.40
41953;DHT22;63613;28.200;112.870;2024-01-30T13:46:19;9.90;89.40
41953;DHT22;63613;28.200;112.870;2024-01-30T13:48:48;9.90;89.30
41953;DHT22;63613;28.200;112.870;2024-01-30T13:51:17;9.90;89.70
41953;DHT22;63613;28.200;112.870;2024-01-30T13:53:47;9.90;89.60
41953;DHT22;63613;28.200;112.870;2024-01-30T13:56:19;10.00;89.40
41953;DHT22;63613;28.200;112.870;2024-01-30T13:58:50;9.90;89.50
41953;DHT22;63613;28.200;112.870;2024-01-30T14:01:23;9.90;89.60
41953;DHT22;63613;28.200;112.870;2024-01-30T14:03:54;9.90;89.40
41953;DHT22;63613;28.200;112.870;2024-01-30T14:06:24;9.90;89.30
41953;DHT22;63613;28.200;112.870;2024-01-30T14:08:55;9.90;89.60
41953;DHT22;63613;28.200;112.870;2024-01-30T14:11:24;9.90;89.70
41953;DHT22;63613;28.200;112.870;2024-01-30T14:13:53;9.90;89.60
41953;DHT22;63613;28.200;112.870;2024-01-30T14:16:23;9.90;89.40
41953;DHT22;63613;28.200;112.870;2024-01-30T14:18:54;9.90;89.40
41953;DHT22;63613;28.200;112.870;2024-01-30T14:21:23;9.90;89.40
41953;DHT22;63613;28.200;112.870;2024-01-30T14:23:52;9.90;89.40
41953;DHT22;63613;28.200;112.870;2024-01-30T14:26:23;9.80;89.60
41953;DHT22;63613;28.200;112.870;2024-01-30T14:28:52;9.80;89.60
41953;DHT22;63613;28.200;112.870;2024-01-30T14:31:23;9.80;89.60
41953;DHT22;63613;28.200;112.870;2024-01-30T14:33:52;9.80;89.70
41953;DHT22;63613;28.200;112.870;2024-01-30T14:36:24;9.80;89.70
41953;DHT22;63613;28.200;112.870;2024-01-30T14:38:57;9.80;89.60
41953;DHT22;63613;28.200;112.870;2024-01-30T14:41:26;9.80;89.70
41953;DHT22;63613;28.200;112.870;2024-01-30T14:43:56;9.80;89.60
41953;DHT22;63613;28.200;112.870;2024-01-30T14:46:25;9.80;89.60
41953;DHT22;63613;28.200;112.870;2024-01-30T14:48:58;9.70;89.70
41953;DHT22;63613;28.200;112.870;2024-01-30T14:51:27;9.60;89.90
41953;DHT22;63613;28.200;112.870;2024-01-30T14:53:57;9.40;90.60
41953;DHT22;63613;28.200;112.870;2024-01-30T14:56:26;9.50;90.80
41953;DHT22;63613;28.200;112.870;2024-01-30T14:58:57;9.60;90.50
41953;DHT22;63613;28.200;112.870;2024-01-30T15:01:26;9.70;90.30
41953;DHT22;63613;28.200;112.870;2024-01-30T15:03:56;9.70;90.40
41953;DHT22;63613;28.200;112.870;2024-01-30T15:06:26;9.60;90.60
41953;DHT22;63613;28.200;112.870;2024-01-30T15:08:55;9.60;90.40
41953;DHT22;63613;28.200;112.870;2024-01-30T15:11:25;9.60;90.10
41953;DHT22;63613;28.200;112.870;2024-01-30T15:13:57;9.50;90.30
41953;DHT22;63613;28.200;112.870;2024-01-30T15:16:26;9.60;90.60
41953;DHT22;63613;28.200;112.870;2024-01-30T15:18:56;9.60;90.50
41953;DHT22;63613;28.200;112.870;2024-01-30T15:21:25;9.60;90.40